createdAt,value
2023-05-04T00:01:18.522Z,5.21
2023-05-04T00:03:46.509Z,5.19
2023-05-04T00:06:14.489Z,5.15
2023-05-04T00:08:42.093Z,5.17
2023-05-04T00:11:09.701Z,5.12
2023-05-04T00:13:37.291Z,5.09
2023-05-04T00:16:08.519Z,5.03
2023-05-04T00:18:37.572Z,5.00
2023-05-04T00:21:05.207Z,4.99
2023-05-04T00:23:32.822Z,4.95
2023-05-04T00:26:00.616Z,4.96
2023-05-04T00:28:28.348Z,4.93
2023-05-04T00:30:56.751Z,4.92
2023-05-04T00:33:25.744Z,4.93
2023-05-04T00:35:53.382Z,4.95
2023-05-04T00:38:21.302Z,4.96
2023-05-04T00:40:49.005Z,4.97
2023-05-04T00:43:16.613Z,4.96
2023-05-04T00:45:44.283Z,4.92
2023-05-04T00:48:12.066Z,4.93
2023-05-04T00:50:41.806Z,4.95
2023-05-04T00:53:11.709Z,4.92
2023-05-04T00:55:41.020Z,4.93
2023-05-04T00:58:09.478Z,4.93
2023-05-04T01:00:37.382Z,4.91
2023-05-04T01:03:05.457Z,4.88
2023-05-04T01:05:37.214Z,4.87
2023-05-04T01:08:11.964Z,4.85
2023-05-04T01:10:46.198Z,4.82
2023-05-04T01:13:16.168Z,4.81
2023-05-04T01:15:44.186Z,4.77
2023-05-04T01:18:11.950Z,4.74
2023-05-04T01:20:39.558Z,4.71
2023-05-04T01:23:08.806Z,4.66
2023-05-04T01:25:58.321Z,4.64
2023-05-04T01:28:33.905Z,4.62
2023-05-04T01:31:02.636Z,4.61
2023-05-04T01:33:33.171Z,4.60
2023-05-04T01:36:01.362Z,4.61
2023-05-04T01:38:31.054Z,4.58
2023-05-04T01:40:58.654Z,4.54
2023-05-04T01:43:26.656Z,4.51
2023-05-04T01:45:54.332Z,4.43
2023-05-04T01:48:21.993Z,4.35
2023-05-04T01:50:49.613Z,4.20
2023-05-04T01:53:17.192Z,4.10
2023-05-04T01:55:46.168Z,4.00
2023-05-04T01:58:13.798Z,3.87
2023-05-04T02:00:41.819Z,3.77
2023-05-04T02:03:09.691Z,3.68
2023-05-04T02:05:37.449Z,3.62
2023-05-04T02:08:05.233Z,3.55
2023-05-04T02:10:32.910Z,3.46
2023-05-04T02:13:02.148Z,3.38
2023-05-04T02:15:29.804Z,3.29
2023-05-04T02:17:57.574Z,3.20
2023-05-04T02:20:25.366Z,3.12
2023-05-04T02:22:53.049Z,3.06
2023-05-04T02:25:20.969Z,2.96
2023-05-04T02:27:48.606Z,2.88
2023-05-04T02:30:17.728Z,2.82
2023-05-04T02:32:45.462Z,2.76
2023-05-04T02:35:13.503Z,2.72
2023-05-04T02:37:41.297Z,2.68
2023-05-04T02:40:09.979Z,2.67
2023-05-04T02:42:37.715Z,2.63
2023-05-04T02:45:07.430Z,2.61
2023-05-04T02:47:36.516Z,2.61
2023-05-04T02:50:04.612Z,2.64
2023-05-04T02:52:32.455Z,2.66
2023-05-04T02:55:00.651Z,2.67
2023-05-04T02:57:28.278Z,2.68
2023-05-04T02:59:55.871Z,2.70
2023-05-04T03:02:23.497Z,2.70
2023-05-04T03:04:52.513Z,2.70
2023-05-04T03:07:20.130Z,2.70
2023-05-04T03:09:48.140Z,2.73
2023-05-04T03:12:16.006Z,2.75
2023-05-04T03:14:43.616Z,2.77
2023-05-04T03:17:11.280Z,2.81
2023-05-04T03:19:38.999Z,2.86
2023-05-04T03:22:07.999Z,2.91
2023-05-04T03:24:36.990Z,2.99
2023-05-04T03:27:05.099Z,3.08
2023-05-04T03:29:32.711Z,3.13
2023-05-04T03:32:00.429Z,3.21
2023-05-04T03:34:28.062Z,3.30
2023-05-04T03:36:56.582Z,3.44
2023-05-04T03:39:25.598Z,3.53
2023-05-04T03:41:53.277Z,3.54
2023-05-04T03:44:20.908Z,3.54
2023-05-04T03:46:48.585Z,3.56
2023-05-04T03:49:16.215Z,3.57
2023-05-04T03:51:43.901Z,3.62
2023-05-04T03:54:11.592Z,3.69
2023-05-04T03:56:40.550Z,3.79
2023-05-04T03:59:08.179Z,3.86
2023-05-04T04:01:35.771Z,3.94
2023-05-04T04:04:04.026Z,3.99
2023-05-04T04:06:32.357Z,4.07
2023-05-04T04:08:59.946Z,4.13
2023-05-04T04:11:27.642Z,4.19
2023-05-04T04:13:56.882Z,4.22
2023-05-04T04:16:24.727Z,4.27
2023-05-04T04:18:52.421Z,4.32
2023-05-04T04:21:20.198Z,4.38
2023-05-04T04:23:47.952Z,4.43
2023-05-04T04:26:15.716Z,4.48
2023-05-04T04:28:44.759Z,4.53
2023-05-04T04:31:13.717Z,4.58
2023-05-04T04:33:41.335Z,4.63
2023-05-04T04:36:10.432Z,4.72
2023-05-04T04:38:39.676Z,4.84
2023-05-04T04:41:07.274Z,5.01
2023-05-04T04:43:34.972Z,5.21
2023-05-04T04:46:03.722Z,5.41
2023-05-04T04:48:32.748Z,5.62
2023-05-04T04:51:00.326Z,5.86
2023-05-04T04:53:28.337Z,6.07
2023-05-04T04:55:56.034Z,6.33
2023-05-04T04:58:23.604Z,6.58
2023-05-04T05:00:52.824Z,6.85
2023-05-04T05:03:20.477Z,7.18
2023-05-04T05:05:49.949Z,7.62
2023-05-04T05:08:17.611Z,8.13
2023-05-04T05:10:45.255Z,8.64
2023-05-04T05:13:13.026Z,9.30
2023-05-04T05:15:40.727Z,9.93
2023-05-04T05:18:08.349Z,10.60
2023-05-04T05:20:35.978Z,10.93
2023-05-04T05:23:05.279Z,11.07
2023-05-04T05:25:33.601Z,11.04
2023-05-04T05:28:02.156Z,11.25
2023-05-04T05:30:29.787Z,11.32
2023-05-04T05:32:57.477Z,11.83
2023-05-04T05:35:25.140Z,12.71
2023-05-04T05:37:52.953Z,13.66
2023-05-04T05:40:22.287Z,14.75
2023-05-04T05:42:50.228Z,15.18
2023-05-04T05:45:19.148Z,15.85
2023-05-04T05:47:46.755Z,16.73
2023-05-04T05:50:14.849Z,17.22
2023-05-04T05:52:42.467Z,17.56
2023-05-04T05:55:10.791Z,17.60
2023-05-04T05:57:39.811Z,17.77
2023-05-04T06:00:09.792Z,17.80
2023-05-04T06:02:37.810Z,18.12
2023-05-04T06:05:06.133Z,18.12
2023-05-04T06:07:33.767Z,18.12
2023-05-04T06:10:01.443Z,17.92
2023-05-04T06:12:29.196Z,18.24
2023-05-04T06:14:58.404Z,18.46
2023-05-04T06:17:26.237Z,18.60
2023-05-04T06:19:53.868Z,17.69
2023-05-04T06:22:21.436Z,17.51
2023-05-04T06:24:49.058Z,18.08
2023-05-04T06:27:17.344Z,18.48
2023-05-04T06:29:44.994Z,18.84
2023-05-04T06:32:14.046Z,19.17
2023-05-04T06:34:41.928Z,19.27
2023-05-04T06:37:09.577Z,19.45
2023-05-04T06:39:37.177Z,19.72
2023-05-04T06:42:04.939Z,19.33
2023-05-04T06:44:35.709Z,19.23
2023-05-04T06:47:03.464Z,18.64
2023-05-04T06:49:33.590Z,18.56
2023-05-04T06:52:01.407Z,18.86
2023-05-04T06:54:29.152Z,19.00
2023-05-04T06:56:56.761Z,19.35
2023-05-04T06:59:24.418Z,19.81
2023-05-04T07:01:52.109Z,20.16
2023-05-04T07:04:23.247Z,20.21
2023-05-04T07:06:52.442Z,19.86
2023-05-04T07:09:20.683Z,19.59
2023-05-04T07:11:49.133Z,18.65
2023-05-04T07:14:16.819Z,18.93
2023-05-04T07:16:44.698Z,18.97
2023-05-04T07:19:12.626Z,19.51
2023-05-04T07:21:40.266Z,19.54
2023-05-04T07:24:09.405Z,19.62
2023-05-04T07:26:37.035Z,19.71
2023-05-04T07:29:04.679Z,19.02
2023-05-04T07:31:32.343Z,19.05
2023-05-04T07:34:00.843Z,18.64
2023-05-04T07:36:28.451Z,18.52
2023-05-04T07:38:56.440Z,18.58
2023-05-04T07:41:26.331Z,18.60
2023-05-04T07:43:53.883Z,18.57
2023-05-04T07:46:21.483Z,18.42
2023-05-04T07:48:49.627Z,18.24
2023-05-04T07:51:17.523Z,17.93
2023-05-04T07:53:45.179Z,17.15
2023-05-04T07:56:14.294Z,16.69
2023-05-04T07:58:43.319Z,15.80
2023-05-04T08:01:10.929Z,15.78
2023-05-04T08:03:38.544Z,15.74
2023-05-04T08:06:06.329Z,15.17
2023-05-04T08:08:33.935Z,15.46
2023-05-04T08:11:15.815Z,15.07
2023-05-04T08:13:48.100Z,15.16
2023-05-04T08:16:16.263Z,15.20
2023-05-04T08:18:44.437Z,15.11
2023-05-04T08:21:12.022Z,15.00
2023-05-04T08:23:39.600Z,15.22
2023-05-04T08:26:07.187Z,15.52
2023-05-04T08:28:37.624Z,15.91
2023-05-04T08:31:07.683Z,15.77
2023-05-04T08:33:35.501Z,15.59
2023-05-04T08:36:04.155Z,15.18
2023-05-04T08:38:31.851Z,15.56
2023-05-04T08:41:02.044Z,15.48
2023-05-04T08:43:30.054Z,15.39
2023-05-04T08:45:57.993Z,15.33
2023-05-04T08:48:31.383Z,15.32
2023-05-04T08:50:59.524Z,15.07
2023-05-04T08:53:28.093Z,15.18
2023-05-04T08:55:57.455Z,15.14
2023-05-04T08:58:27.678Z,15.26
2023-05-04T09:00:56.743Z,14.84
2023-05-04T09:03:25.083Z,14.71
2023-05-04T09:05:54.411Z,14.63
2023-05-04T09:08:22.214Z,14.73
2023-05-04T09:10:49.813Z,14.51
2023-05-04T09:13:17.991Z,14.58
2023-05-04T09:15:55.152Z,14.61
2023-05-04T09:18:23.083Z,15.13
2023-05-04T09:20:50.921Z,15.14
2023-05-04T09:23:22.422Z,15.19
2023-05-04T09:25:51.851Z,15.07
2023-05-04T09:28:21.486Z,15.18
2023-05-04T09:30:49.404Z,14.98
2023-05-04T09:33:17.331Z,15.24
2023-05-04T09:35:45.423Z,15.31
2023-05-04T09:38:13.021Z,15.38
2023-05-04T09:40:43.263Z,15.66
2023-05-04T09:43:13.338Z,15.38
2023-05-04T09:45:42.054Z,15.45
2023-05-04T09:48:17.320Z,15.11
2023-05-04T09:50:55.985Z,15.37
2023-05-04T09:53:25.100Z,15.58
2023-05-04T09:56:05.702Z,15.44
2023-05-04T09:58:35.722Z,15.36
2023-05-04T10:01:03.536Z,15.61
2023-05-04T10:03:31.673Z,15.34
2023-05-04T10:06:00.454Z,15.73
2023-05-04T10:08:29.176Z,15.85
2023-05-04T10:10:58.585Z,16.15
2023-05-04T10:13:26.687Z,16.27
2023-05-04T10:16:05.711Z,16.47
2023-05-04T10:18:47.390Z,16.34
2023-05-04T10:21:30.863Z,16.44
2023-05-04T10:24:31.508Z,16.43
2023-05-04T10:27:19.643Z,16.43
2023-05-04T10:29:50.422Z,16.35
2023-05-04T10:32:19.003Z,16.47
2023-05-04T10:34:46.780Z,16.25
2023-05-04T10:37:19.069Z,16.23
2023-05-04T10:39:53.729Z,16.27
2023-05-04T10:42:23.112Z,16.19
2023-05-04T10:44:52.455Z,16.32
2023-05-04T10:47:29.792Z,15.89
2023-05-04T10:50:04.897Z,15.98
2023-05-04T10:52:33.474Z,16.26
2023-05-04T10:55:02.511Z,16.39
2023-05-04T10:57:31.598Z,16.52
2023-05-04T10:59:59.883Z,16.62
2023-05-04T11:02:30.338Z,16.32
2023-05-04T11:05:01.692Z,16.27
2023-05-04T11:07:36.711Z,16.35
2023-05-04T11:10:05.187Z,16.45
2023-05-04T11:12:34.209Z,16.60
2023-05-04T11:15:06.965Z,16.76
2023-05-04T11:17:34.790Z,16.60
2023-05-04T11:20:02.719Z,16.63
2023-05-04T11:22:30.341Z,16.87
2023-05-04T11:24:58.096Z,16.76
2023-05-04T11:27:27.557Z,17.09
2023-05-04T11:29:57.931Z,17.24
2023-05-04T11:32:35.529Z,17.11
2023-05-04T11:35:04.242Z,17.01
2023-05-04T11:37:32.585Z,16.96
2023-05-04T11:40:00.591Z,16.94
2023-05-04T11:42:28.245Z,17.03
2023-05-04T11:44:57.370Z,17.16
2023-05-04T11:47:26.441Z,16.97
2023-05-04T11:49:54.326Z,17.01
2023-05-04T11:52:25.843Z,16.99
2023-05-04T11:54:57.132Z,17.07
2023-05-04T11:57:24.769Z,16.95
2023-05-04T11:59:52.433Z,17.11
2023-05-04T12:02:21.495Z,16.99
2023-05-04T12:04:49.236Z,17.04
2023-05-04T12:07:17.074Z,17.11
2023-05-04T12:09:45.942Z,16.85
2023-05-04T12:12:13.565Z,16.71
2023-05-04T12:14:48.466Z,16.73
2023-05-04T12:17:16.343Z,16.87
2023-05-04T12:19:57.378Z,16.79
2023-05-04T12:22:29.496Z,16.58
2023-05-04T12:24:58.670Z,16.31
2023-05-04T12:27:26.371Z,16.51
2023-05-04T12:29:54.824Z,16.77
2023-05-04T12:32:22.507Z,16.59
2023-05-04T12:34:50.224Z,16.62
2023-05-04T12:37:19.186Z,16.42
2023-05-04T12:39:47.272Z,16.35
2023-05-04T12:42:14.828Z,16.41
2023-05-04T12:44:42.472Z,16.25
2023-05-04T12:47:10.216Z,16.21
2023-05-04T12:49:37.781Z,16.30
2023-05-04T12:52:05.556Z,16.26
2023-05-04T12:54:34.550Z,16.26
2023-05-04T12:57:03.436Z,15.95
2023-05-04T12:59:31.014Z,15.84
2023-05-04T13:01:58.654Z,16.23
2023-05-04T13:04:26.278Z,15.99
2023-05-04T13:06:53.983Z,15.82
2023-05-04T13:09:21.689Z,15.93
2023-05-04T13:11:50.709Z,16.00
2023-05-04T13:14:18.389Z,16.08
2023-05-04T13:16:45.947Z,16.14
2023-05-04T13:19:13.605Z,15.96
2023-05-04T13:21:41.222Z,16.00
2023-05-04T13:24:09.158Z,15.96
2023-05-04T13:26:37.145Z,15.76
2023-05-04T13:29:06.070Z,15.93
2023-05-04T13:31:33.754Z,15.84
2023-05-04T13:34:01.485Z,15.70
2023-05-04T13:36:29.108Z,15.50
2023-05-04T13:38:56.676Z,15.60
2023-05-04T13:41:24.538Z,15.70
2023-05-04T13:43:52.136Z,15.75
2023-05-04T13:46:21.353Z,15.65
2023-05-04T13:48:48.936Z,15.38
2023-05-04T13:51:16.599Z,15.57
2023-05-04T13:53:44.162Z,15.33
2023-05-04T13:56:11.965Z,15.62
2023-05-04T13:58:39.577Z,15.78
2023-05-04T14:01:07.341Z,15.94
2023-05-04T14:03:36.326Z,16.20
2023-05-04T14:06:04.034Z,16.00
2023-05-04T14:08:31.653Z,16.14
2023-05-04T14:10:59.506Z,16.30
2023-05-04T14:13:27.316Z,16.33
2023-05-04T14:15:55.150Z,16.22
2023-05-04T14:18:22.775Z,16.23
2023-05-04T14:20:51.737Z,16.10
2023-05-04T14:23:19.319Z,16.20
2023-05-04T14:25:51.343Z,16.55
2023-05-04T14:28:19.431Z,16.52
2023-05-04T14:30:47.054Z,16.60
2023-05-04T14:33:14.792Z,16.47
2023-05-04T14:35:44.118Z,16.29
2023-05-04T14:38:14.207Z,16.21
2023-05-04T14:40:41.955Z,16.09
2023-05-04T14:43:09.590Z,16.14
2023-05-04T14:45:37.577Z,15.86
2023-05-04T14:48:05.727Z,15.62
2023-05-04T14:50:33.397Z,15.38
2023-05-04T14:53:00.991Z,15.25
2023-05-04T14:55:31.478Z,15.28
2023-05-04T14:57:59.363Z,15.29
2023-05-04T15:00:27.062Z,15.33
2023-05-04T15:02:54.784Z,15.15
2023-05-04T15:05:22.492Z,14.88
2023-05-04T15:07:50.090Z,14.82
2023-05-04T15:10:17.701Z,14.88
2023-05-04T15:12:46.667Z,14.76
2023-05-04T15:15:14.360Z,14.87
2023-05-04T15:17:42.061Z,15.04
2023-05-04T15:20:11.000Z,14.87
2023-05-04T15:22:38.733Z,14.80
2023-05-04T15:25:06.898Z,14.78
2023-05-04T15:27:34.518Z,14.78
2023-05-04T15:30:03.761Z,14.78
2023-05-04T15:32:31.553Z,14.69
2023-05-04T15:35:07.918Z,14.67
2023-05-04T15:37:35.931Z,14.72
2023-05-04T15:40:04.639Z,14.52
2023-05-04T15:42:32.390Z,14.75
2023-05-04T15:45:00.009Z,14.62
2023-05-04T15:47:29.065Z,14.20
2023-05-04T15:49:56.695Z,14.12
2023-05-04T15:52:24.826Z,14.14
2023-05-04T15:54:52.836Z,14.05
2023-05-04T15:57:20.479Z,13.85
2023-05-04T15:59:49.596Z,13.73
2023-05-04T16:02:17.317Z,13.62
2023-05-04T16:04:46.583Z,13.54
2023-05-04T16:07:14.460Z,13.44
2023-05-04T16:09:42.077Z,13.54
2023-05-04T16:12:10.603Z,13.37
2023-05-04T16:14:38.263Z,13.38
2023-05-04T16:17:05.931Z,13.47
2023-05-04T16:19:33.528Z,13.37
2023-05-04T16:22:02.552Z,13.32
2023-05-04T16:24:30.165Z,13.52
2023-05-04T16:26:57.764Z,13.48
2023-05-04T16:29:25.737Z,13.36
2023-05-04T16:31:53.355Z,13.37
2023-05-04T16:34:21.026Z,13.47
2023-05-04T16:36:48.988Z,13.59
2023-05-04T16:39:18.734Z,13.47
2023-05-04T16:41:48.196Z,13.26
2023-05-04T16:44:16.097Z,13.11
2023-05-04T16:46:43.777Z,13.14
2023-05-04T16:49:12.501Z,13.17
2023-05-04T16:51:42.899Z,13.24
2023-05-04T16:54:10.976Z,13.13
2023-05-04T16:56:40.298Z,12.89
2023-05-04T16:59:07.906Z,12.71
2023-05-04T17:01:36.030Z,12.70
2023-05-04T17:04:03.883Z,12.49
2023-05-04T17:06:31.654Z,12.63
2023-05-04T17:08:59.246Z,12.47
2023-05-04T17:11:27.285Z,12.39
2023-05-04T17:13:56.439Z,12.31
2023-05-04T17:16:24.338Z,12.19
2023-05-04T17:18:52.078Z,12.24
2023-05-04T17:21:19.741Z,12.28
2023-05-04T17:23:47.365Z,12.33
2023-05-04T17:26:15.784Z,12.39
2023-05-04T17:28:43.408Z,12.35
2023-05-04T17:31:13.369Z,12.32
2023-05-04T17:33:41.092Z,12.37
2023-05-04T17:36:11.856Z,12.37
2023-05-04T17:38:41.381Z,12.26
2023-05-04T17:41:09.819Z,12.01
2023-05-04T17:43:38.062Z,11.95
2023-05-04T17:46:05.933Z,11.90
2023-05-04T17:48:36.296Z,11.82
2023-05-04T17:51:04.522Z,11.65
2023-05-04T17:53:32.217Z,11.61
2023-05-04T17:55:59.914Z,11.46
2023-05-04T17:58:27.653Z,11.38
2023-05-04T18:00:55.341Z,11.24
2023-05-04T18:03:23.331Z,11.28
2023-05-04T18:05:52.447Z,11.25
2023-05-04T18:08:20.226Z,11.19
2023-05-04T18:10:48.509Z,11.19
2023-05-04T18:13:16.318Z,11.14
2023-05-04T18:15:44.105Z,11.09
2023-05-04T18:18:11.866Z,11.04
2023-05-04T18:20:39.568Z,11.00
2023-05-04T18:23:08.604Z,10.92
2023-05-04T18:25:37.879Z,10.89
2023-05-04T18:28:07.310Z,10.84
2023-05-04T18:30:34.945Z,10.81
2023-05-04T18:33:02.547Z,10.77
2023-05-04T18:35:30.210Z,10.74
2023-05-04T18:37:57.819Z,10.70
2023-05-04T18:40:26.898Z,10.65
2023-05-04T18:42:54.530Z,10.63
2023-05-04T18:45:22.170Z,10.64
2023-05-04T18:47:49.753Z,10.59
2023-05-04T18:50:17.596Z,10.56
2023-05-04T18:52:45.352Z,10.57
2023-05-04T18:55:12.994Z,10.57
2023-05-04T18:57:41.947Z,10.54
2023-05-04T19:00:11.593Z,10.47
2023-05-04T19:02:39.261Z,10.49
2023-05-04T19:05:07.166Z,10.43
2023-05-04T19:07:34.840Z,10.46
2023-05-04T19:10:02.511Z,10.42
2023-05-04T19:12:30.117Z,10.37
2023-05-04T19:14:59.201Z,10.37
2023-05-04T19:17:27.334Z,10.34
2023-05-04T19:19:54.948Z,10.30
2023-05-04T19:22:22.542Z,10.30
2023-05-04T19:24:51.938Z,10.28
2023-05-04T19:27:19.521Z,10.24
2023-05-04T19:29:47.987Z,10.22
2023-05-04T19:32:24.517Z,10.22
2023-05-04T19:34:52.730Z,10.22
2023-05-04T19:37:20.378Z,10.21
2023-05-04T19:39:48.054Z,10.21
2023-05-04T19:42:16.066Z,10.20
2023-05-04T19:44:44.342Z,10.16
2023-05-04T19:47:12.641Z,10.14
2023-05-04T19:49:41.819Z,10.14
2023-05-04T19:52:09.594Z,10.17
2023-05-04T19:54:38.254Z,10.15
2023-05-04T19:57:05.996Z,10.17
2023-05-04T19:59:33.846Z,10.13
2023-05-04T20:02:01.739Z,10.10
2023-05-04T20:04:29.391Z,10.01
2023-05-04T20:06:58.403Z,10.06
2023-05-04T20:09:26.650Z,10.07
2023-05-04T20:11:54.208Z,10.01
2023-05-04T20:14:21.832Z,10.00
2023-05-04T20:16:49.469Z,10.01
2023-05-04T20:19:17.135Z,9.93
2023-05-04T20:21:44.782Z,9.93
2023-05-04T20:24:13.940Z,9.90
2023-05-04T20:26:41.653Z,9.90
2023-05-04T20:29:09.270Z,9.92
2023-05-04T20:31:37.087Z,9.93
2023-05-04T20:34:04.717Z,9.94
2023-05-04T20:36:33.239Z,9.94
2023-05-04T20:39:02.428Z,9.93
2023-05-04T20:41:32.304Z,9.92
2023-05-04T20:44:00.192Z,9.89
2023-05-04T20:46:27.968Z,9.80
2023-05-04T20:48:55.660Z,9.81
2023-05-04T20:51:23.351Z,9.83
2023-05-04T20:53:50.981Z,9.80
2023-05-04T20:56:18.684Z,9.77
2023-05-04T20:58:48.072Z,9.76
2023-05-04T21:01:15.696Z,9.78
2023-05-04T21:03:43.848Z,9.72
2023-05-04T21:06:12.153Z,9.70
2023-05-04T21:08:39.916Z,9.68
2023-05-04T21:11:07.764Z,9.68
2023-05-04T21:13:35.436Z,9.65
2023-05-04T21:16:04.678Z,9.65
2023-05-04T21:18:32.281Z,9.68
2023-05-04T21:20:59.893Z,9.70
2023-05-04T21:23:27.619Z,9.69
2023-05-04T21:26:01.397Z,9.66
2023-05-04T21:28:29.205Z,9.66
2023-05-04T21:30:56.981Z,9.71
2023-05-04T21:33:25.988Z,9.68
2023-05-04T21:35:53.672Z,9.67
2023-05-04T21:38:22.286Z,9.63
2023-05-04T21:40:50.542Z,9.64
2023-05-04T21:43:18.181Z,9.65
2023-05-04T21:45:46.429Z,9.59
2023-05-04T21:48:14.117Z,9.57
2023-05-04T21:50:43.024Z,9.56
2023-05-04T21:53:11.204Z,9.56
2023-05-04T21:55:38.786Z,9.52
2023-05-04T21:58:06.354Z,9.57
2023-05-04T22:00:34.065Z,9.56
2023-05-04T22:03:01.774Z,9.59
2023-05-04T22:05:29.402Z,9.57
2023-05-04T22:07:58.438Z,9.52
2023-05-04T22:10:26.057Z,9.58
2023-05-04T22:12:53.795Z,9.52
2023-05-04T22:15:21.380Z,9.48
2023-05-04T22:17:49.398Z,9.47
2023-05-04T22:20:17.624Z,9.44
2023-05-04T22:22:45.554Z,9.42
2023-05-04T22:25:14.819Z,9.38
2023-05-04T22:27:42.449Z,9.37
2023-05-04T22:30:11.124Z,9.32
2023-05-04T22:32:38.747Z,9.33
2023-05-04T22:35:07.147Z,9.32
2023-05-04T22:37:34.797Z,9.27
2023-05-04T22:40:04.314Z,9.24
2023-05-04T22:42:33.490Z,9.25
2023-05-04T22:45:01.093Z,9.25
2023-05-04T22:47:28.744Z,9.26
2023-05-04T22:49:56.463Z,9.24
2023-05-04T22:52:24.686Z,9.22
2023-05-04T22:54:52.883Z,9.17
2023-05-04T22:57:20.746Z,9.21
2023-05-04T22:59:49.677Z,9.17
2023-05-04T23:02:17.345Z,9.14
2023-05-04T23:04:45.283Z,9.12
2023-05-04T23:07:12.937Z,9.14
2023-05-04T23:09:43.236Z,9.12
2023-05-04T23:12:10.882Z,9.06
2023-05-04T23:14:38.705Z,9.02
2023-05-04T23:17:07.900Z,9.01
2023-05-04T23:19:35.768Z,8.99
2023-05-04T23:22:03.574Z,8.98
2023-05-04T23:24:31.186Z,8.94
2023-05-04T23:26:58.816Z,8.97
2023-05-04T23:29:26.726Z,8.94
2023-05-04T23:31:54.539Z,8.91
2023-05-04T23:34:23.683Z,8.89
2023-05-04T23:36:53.635Z,8.87
2023-05-04T23:39:21.271Z,8.88
2023-05-04T23:41:49.061Z,8.85
2023-05-04T23:44:17.386Z,8.84
2023-05-04T23:46:44.986Z,8.84
2023-05-04T23:49:12.825Z,8.80
2023-05-04T23:51:41.761Z,8.83
2023-05-04T23:54:09.367Z,8.82
2023-05-04T23:56:37.000Z,8.84
2023-05-04T23:59:04.726Z,8.84
